createdAt,value
2023-04-13T00:01:46.487Z,98862.48
2023-04-13T00:03:51.811Z,98868.63
2023-04-13T00:05:57.297Z,98864.66
2023-04-13T00:08:02.275Z,98862.32
2023-04-13T00:10:07.323Z,98862.66
2023-04-13T00:12:12.392Z,98870.47
2023-04-13T00:14:17.415Z,98872.3
2023-04-13T00:16:22.550Z,98877.67
2023-04-13T00:18:27.571Z,98873.09
2023-04-13T00:20:32.672Z,98875.9
2023-04-13T00:22:37.697Z,98877.59
2023-04-13T00:24:42.732Z,98868.59
2023-04-13T00:26:47.715Z,98865.51
2023-04-13T00:28:52.703Z,98860.67
2023-04-13T00:30:57.953Z,98862.2
2023-04-13T00:33:03.166Z,98866.39
2023-04-13T00:35:08.316Z,98871.61
2023-04-13T00:37:13.368Z,98868.72
2023-04-13T00:39:18.369Z,98888.02
2023-04-13T00:41:23.349Z,98874.19
2023-04-13T00:43:28.409Z,98884.56
2023-04-13T00:45:33.386Z,98877.85
2023-04-13T00:47:38.469Z,98879.03
2023-04-13T00:49:43.531Z,98890.09
2023-04-13T00:51:48.587Z,98890.13
2023-04-13T00:53:53.582Z,98889.09
2023-04-13T00:55:58.626Z,98888.96
2023-04-13T00:58:03.631Z,98884.48
2023-04-13T01:00:08.662Z,98885.31
2023-04-13T01:02:14.092Z,98887.67
2023-04-13T01:04:19.334Z,98882.17
2023-04-13T01:06:24.397Z,98880.58
2023-04-13T01:08:29.422Z,98878.47
2023-04-13T01:10:34.491Z,98873.42
2023-04-13T01:12:39.574Z,98879.27
2023-04-13T01:14:44.571Z,98876.75
2023-04-13T01:16:49.582Z,98870.45
2023-04-13T01:18:54.539Z,98870.23
2023-04-13T01:20:59.556Z,98874.22
2023-04-13T01:23:04.719Z,98874.3
2023-04-13T01:25:09.727Z,98875.85
2023-04-13T01:27:14.704Z,98874.66
2023-04-13T01:29:19.733Z,98868.91
2023-04-13T01:31:24.859Z,98866.88
2023-04-13T01:33:30.045Z,98864.64
2023-04-13T01:37:17.515Z,98857.16
2023-04-13T01:39:22.510Z,98863.85
2023-04-13T01:41:27.459Z,98868.16
2023-04-13T01:43:32.461Z,98867.27
2023-04-13T01:45:37.490Z,98866.36
2023-04-13T01:47:42.642Z,98858.17
2023-04-13T01:49:47.650Z,98858.46
2023-04-13T01:51:52.704Z,98863.05
2023-04-13T01:53:57.987Z,98871.15
2023-04-13T01:56:03.538Z,98870.33
2023-04-13T01:58:08.579Z,98868.95
2023-04-13T02:00:13.583Z,98871.09
2023-04-13T02:02:18.826Z,98865.59
2023-04-13T02:04:24.236Z,98865.83
2023-04-13T02:06:29.519Z,98865.19
2023-04-13T02:08:34.914Z,98863.25
2023-04-13T02:10:39.871Z,98862.05
2023-04-13T02:12:44.914Z,98866.69
2023-04-13T02:14:50.429Z,98866.91
2023-04-13T02:16:55.669Z,98863.41
2023-04-13T02:19:00.677Z,98866.16
2023-04-13T02:21:05.768Z,98865.4
2023-04-13T02:23:10.826Z,98864.72
2023-04-13T02:25:15.883Z,98870.45
2023-04-13T02:27:20.968Z,98877.59
2023-04-13T02:29:25.950Z,98874.02
2023-04-13T02:31:31.092Z,98875.38
2023-04-13T02:33:36.212Z,98875.38
2023-04-13T02:35:41.179Z,98875.08
2023-04-13T02:37:46.194Z,98874.16
2023-04-13T02:39:51.165Z,98877.84
2023-04-13T02:41:56.162Z,98878.34
2023-04-13T02:44:01.843Z,98878.89
2023-04-13T02:46:07.187Z,98872.58
2023-04-13T02:48:12.256Z,98872.97
2023-04-13T02:50:17.288Z,98878.75
2023-04-13T02:52:22.273Z,98877.59
2023-04-13T02:54:27.253Z,98871.2
2023-04-13T02:56:32.329Z,98866.36
2023-04-13T02:58:37.357Z,98867.14
2023-04-13T03:00:42.337Z,98871.17
2023-04-13T03:02:47.811Z,98868.6
2023-04-13T03:04:53.452Z,98869.51
2023-04-13T03:06:58.540Z,98872.45
2023-04-13T03:09:03.707Z,98872.62
2023-04-13T03:11:08.763Z,98867.03
2023-04-13T03:13:13.737Z,98867.89
2023-04-13T03:15:18.694Z,98870.09
2023-04-13T03:17:23.721Z,98872.82
2023-04-13T03:19:28.874Z,98875.02
2023-04-13T03:21:33.904Z,98877.34
2023-04-13T03:23:38.903Z,98875.81
2023-04-13T03:25:43.859Z,98876.98
2023-04-13T03:27:48.840Z,98879.7
2023-04-13T03:29:53.889Z,98886.85
2023-04-13T03:31:58.882Z,98884.65
2023-04-13T03:34:03.897Z,98884.93
2023-04-13T03:36:08.942Z,98882.74
2023-04-13T03:38:13.917Z,98884.23
2023-04-13T03:40:18.923Z,98889.86
2023-04-13T03:42:23.863Z,98894.97
2023-04-13T03:44:28.891Z,98896.86
2023-04-13T03:46:33.997Z,98895.58
2023-04-13T03:48:39.055Z,98891.84
2023-04-13T03:50:44.133Z,98886.98
2023-04-13T03:52:49.081Z,98883.61
2023-04-13T03:54:54.407Z,98886.52
2023-04-13T03:56:59.529Z,98890.53
2023-04-13T03:59:04.564Z,98896.28
2023-04-13T04:01:09.595Z,98893.04
2023-04-13T04:03:14.828Z,98892.69
2023-04-13T04:05:20.349Z,98892.34
2023-04-13T04:07:25.611Z,98897.56
2023-04-13T04:09:30.620Z,98901.91
2023-04-13T04:11:35.617Z,98909.57
2023-04-13T04:13:40.633Z,98914.25
2023-04-13T04:15:45.687Z,98910.91
2023-04-13T04:17:50.781Z,98906.08
2023-04-13T04:19:55.936Z,98903.06
2023-04-13T04:22:00.921Z,98907.09
2023-04-13T04:24:05.897Z,98909.97
2023-04-13T04:26:10.991Z,98920.2
2023-04-13T04:28:15.938Z,98921.77
2023-04-13T04:30:20.940Z,98922.11
2023-04-13T04:32:26.352Z,98928.27
2023-04-13T04:34:31.515Z,98934.42
2023-04-13T04:36:36.563Z,98938.59
2023-04-13T04:38:41.567Z,98940.3
2023-04-13T04:40:46.604Z,98941.88
2023-04-13T04:42:51.586Z,98944.58
2023-04-13T04:44:56.582Z,98941.67
2023-04-13T04:47:01.653Z,98943.91
2023-04-13T04:49:06.740Z,98944.72
2023-04-13T04:51:11.782Z,98945.78
2023-04-13T04:53:16.774Z,98949.12
2023-04-13T04:55:21.762Z,98953.61
2023-04-13T04:57:29.694Z,98958.67
2023-04-13T04:59:34.782Z,98959.41
2023-04-13T05:01:40.127Z,98963.88
2023-04-13T05:03:45.331Z,98961.63
2023-04-13T05:05:50.301Z,98961.44
2023-04-13T05:07:55.282Z,98966.39
2023-04-13T05:10:00.273Z,98966.95
2023-04-13T05:12:05.292Z,98968.2
2023-04-13T05:14:10.280Z,98960.66
2023-04-13T05:16:15.412Z,98962.2
2023-04-13T05:18:20.487Z,98966.19
2023-04-13T05:20:25.476Z,98960.87
2023-04-13T05:22:30.488Z,98968.39
2023-04-13T05:24:35.481Z,98967.7
2023-04-13T05:26:40.443Z,98959.62
2023-04-13T05:28:45.454Z,98955.33
2023-04-13T05:30:50.453Z,98957.41
2023-04-13T05:32:55.580Z,98955.09
2023-04-13T05:35:00.660Z,98955.67
2023-04-13T05:37:05.776Z,98957.05
2023-04-13T05:39:10.795Z,98951.13
2023-04-13T05:41:15.745Z,98964.05
2023-04-13T05:43:23.791Z,98964.39
2023-04-13T05:45:28.942Z,98963.17
2023-04-13T05:47:34.190Z,98966.49
2023-04-13T05:49:39.268Z,98964.91
2023-04-13T05:51:44.262Z,98967.86
2023-04-13T05:53:49.337Z,98967.83
2023-04-13T05:55:54.341Z,98973.06
2023-04-13T05:57:59.346Z,98973.83
2023-04-13T06:00:04.347Z,98974.94
2023-04-13T06:02:09.687Z,98973.27
2023-04-13T06:04:15.298Z,98974.52
2023-04-13T06:06:20.764Z,98970.84
2023-04-13T06:08:26.070Z,98973.42
2023-04-13T06:10:33.224Z,98981.11
2023-04-13T06:12:38.337Z,98980.97
2023-04-13T06:14:43.375Z,98983.58
2023-04-13T06:16:48.404Z,98986.05
2023-04-13T06:18:53.576Z,98992.47
2023-04-13T06:20:58.522Z,98992.66
2023-04-13T06:23:03.649Z,99002.17
2023-04-13T06:25:08.688Z,98999.8
2023-04-13T06:27:13.650Z,99004.43
2023-04-13T06:29:18.649Z,99011.38
2023-04-13T06:31:23.846Z,99010.26
2023-04-13T06:33:28.977Z,99014.77
2023-04-13T06:35:33.956Z,99013.09
2023-04-13T06:37:38.942Z,99014.7
2023-04-13T06:39:43.951Z,99016.84
2023-04-13T06:41:49.033Z,99019.05
2023-04-13T06:43:54.077Z,99023.67
2023-04-13T06:45:59.248Z,99026.06
2023-04-13T06:48:04.707Z,99027.36
2023-04-13T06:50:09.974Z,99031.41
2023-04-13T06:52:14.967Z,99029.58
2023-04-13T06:54:19.983Z,99029.58
2023-04-13T06:56:25.028Z,99032.68
2023-04-13T06:58:30.013Z,99037.99
2023-04-13T07:00:35.288Z,99038.73
2023-04-13T07:02:40.735Z,99036.06
2023-04-13T07:04:46.113Z,99040.83
2023-04-13T07:06:51.337Z,99036.41
2023-04-13T07:08:56.395Z,99041.81
2023-04-13T07:11:01.940Z,99040.55
2023-04-13T07:13:06.916Z,99043.97
2023-04-13T07:15:11.882Z,99045.77
2023-04-13T07:17:16.932Z,99052.33
2023-04-13T07:19:22.051Z,99045.52
2023-04-13T07:21:27.057Z,99047.95
2023-04-13T07:23:32.046Z,99046.81
2023-04-13T07:25:37.019Z,99052.48
2023-04-13T07:27:42.067Z,99049.86
2023-04-13T07:29:47.112Z,99052
2023-04-13T07:31:52.316Z,99053.77
2023-04-13T07:33:57.423Z,99051.45
2023-04-13T07:36:02.529Z,99052.58
2023-04-13T07:38:07.514Z,99054.97
2023-04-13T07:40:12.495Z,99058.98
2023-04-13T07:42:17.644Z,99061.34
2023-04-13T07:44:22.634Z,99063.02
2023-04-13T07:46:27.734Z,99062.84
2023-04-13T07:48:32.794Z,99065.95
2023-04-13T07:50:37.786Z,99069.38
2023-04-13T07:52:42.950Z,99073.64
2023-04-13T07:54:47.874Z,99079.75
2023-04-13T07:56:52.945Z,99077.34
2023-04-13T07:58:58.336Z,99081.16
2023-04-13T08:01:04.031Z,99086.89
2023-04-13T08:03:09.238Z,99086.94
2023-04-13T08:05:15.069Z,99087.65
2023-04-13T08:07:20.379Z,99090.02
2023-04-13T08:09:25.433Z,99092.05
2023-04-13T08:11:30.459Z,99098.38
2023-04-13T08:13:35.529Z,99102.32
2023-04-13T08:15:40.578Z,99100.56
2023-04-13T08:17:45.679Z,99094.84
2023-04-13T08:19:50.781Z,99097.28
2023-04-13T08:21:55.929Z,99101.88
2023-04-13T08:24:00.962Z,99101.8
2023-04-13T08:26:05.971Z,99104.31
2023-04-13T08:28:11.012Z,99109.56
2023-04-13T08:30:16.027Z,99107.94
2023-04-13T08:32:21.344Z,99108.81
2023-04-13T08:34:26.463Z,99105.78
2023-04-13T08:36:31.453Z,99105.28
2023-04-13T08:38:38.025Z,99113.48
2023-04-13T08:40:43.340Z,99110.92
2023-04-13T08:42:48.451Z,99106.3
2023-04-13T08:44:53.509Z,99107.33
2023-04-13T08:46:58.539Z,99112.21
2023-04-13T08:49:03.566Z,99107.27
2023-04-13T08:51:08.604Z,99104.94
2023-04-13T08:53:13.582Z,99103.23
2023-04-13T08:55:18.580Z,99101.02
2023-04-13T08:57:23.567Z,99094.98
2023-04-13T08:59:28.697Z,99098.67
2023-04-13T09:01:33.840Z,99100.84
2023-04-13T09:03:39.494Z,99101.58
2023-04-13T09:05:44.881Z,99105.11
2023-04-13T09:07:50.023Z,99110.35
2023-04-13T09:09:55.027Z,99109.28
2023-04-13T09:12:00.112Z,99111.27
2023-04-13T09:14:05.071Z,99117.2
2023-04-13T09:16:10.096Z,99111.11
2023-04-13T09:18:15.172Z,99109.14
2023-04-13T09:20:20.580Z,99107.44
2023-04-13T09:22:25.599Z,99104.74
2023-04-13T09:24:30.578Z,99103.83
2023-04-13T09:26:35.582Z,99102.73
2023-04-13T09:28:40.562Z,99101.74
2023-04-13T09:30:45.664Z,99098.21
2023-04-13T09:32:50.897Z,99095.31
2023-04-13T09:34:56.048Z,99096.38
2023-04-13T09:37:03.185Z,99093.32
2023-04-13T09:39:08.169Z,99097.59
2023-04-13T09:41:13.192Z,99096.6
2023-04-13T09:43:18.277Z,99101.61
2023-04-13T09:45:23.317Z,99101.8
2023-04-13T09:47:28.378Z,99102.41
2023-04-13T09:49:33.629Z,99099.41
2023-04-13T09:51:38.795Z,99099.41
2023-04-13T09:53:43.885Z,99107.16
2023-04-13T09:55:48.862Z,99110.05
2023-04-13T09:57:53.850Z,99116.7
2023-04-13T09:59:58.876Z,99124.89
2023-04-13T10:02:04.050Z,99127.28
2023-04-13T10:04:09.284Z,99130.72
2023-04-13T10:06:14.308Z,99132.41
2023-04-13T10:10:42.417Z,99132.41
2023-04-13T10:12:47.416Z,99131.83
2023-04-13T10:14:52.424Z,99130.2
2023-04-13T10:16:57.582Z,99134.81
2023-04-13T10:19:03.066Z,99138.28
2023-04-13T10:21:08.131Z,99133.73
2023-04-13T10:23:13.098Z,99133.33
2023-04-13T10:25:34.557Z,99130.88
2023-04-13T10:27:43.566Z,99140.33
2023-04-13T10:29:48.639Z,99144.28
2023-04-13T10:31:53.756Z,99145.78
2023-04-13T10:33:59.014Z,99148.95
2023-04-13T10:36:04.246Z,99149.91
2023-04-13T10:38:09.346Z,99152.46
2023-04-13T10:40:14.354Z,99154.78
2023-04-13T10:42:19.692Z,99156.13
2023-04-13T10:44:24.735Z,99157.22
2023-04-13T10:46:29.936Z,99162.8
2023-04-13T10:48:35.039Z,99167.87
2023-04-13T10:50:40.029Z,99168.48
2023-04-13T10:52:45.046Z,99177.11
2023-04-13T10:54:50.044Z,99181.92
2023-04-13T10:56:55.052Z,99175.33
2023-04-13T10:59:00.596Z,99182
2023-04-13T11:01:05.878Z,99181.57
2023-04-13T11:03:11.201Z,99182.52
2023-04-13T11:05:16.736Z,99190.53
2023-04-13T11:07:21.829Z,99193.27
2023-04-13T11:09:26.816Z,99191.98
2023-04-13T11:11:31.889Z,99186.46
2023-04-13T11:13:36.898Z,99199.02
2023-04-13T11:15:41.910Z,99202.09
2023-04-13T11:17:47.122Z,99209.53
2023-04-13T11:19:52.315Z,99214.83
2023-04-13T11:21:57.410Z,99218.23
2023-04-13T11:24:02.532Z,99219.23
2023-04-13T11:26:07.720Z,99218.72
2023-04-13T11:28:12.728Z,99221.58
2023-04-13T11:30:17.739Z,99214.55
2023-04-13T11:32:22.922Z,99215.19
2023-04-13T11:34:28.160Z,99215.42
2023-04-13T11:36:33.181Z,99220.02
2023-04-13T11:38:38.195Z,99217.55
2023-04-13T11:40:43.200Z,99219.03
2023-04-13T11:42:48.195Z,99221.52
2023-04-13T11:44:53.326Z,99223.48
2023-04-13T11:46:58.440Z,99221.07
2023-04-13T11:49:03.616Z,99226.92
2023-04-13T11:51:08.648Z,99219.72
2023-04-13T11:53:13.675Z,99225.55
2023-04-13T11:55:24.804Z,99228.33
2023-04-13T11:57:29.816Z,99221.77
2023-04-13T11:59:34.882Z,99219.3
2023-04-13T12:01:55.435Z,99221.03
2023-04-13T12:04:17.356Z,99223
2023-04-13T12:06:23.523Z,99220.28
2023-04-13T12:08:30.661Z,99215.83
2023-04-13T12:10:43.367Z,99214.86
2023-04-13T12:13:18.330Z,99214.64
2023-04-13T12:16:04.819Z,99215.27
2023-04-13T12:18:28.851Z,99213.57
2023-04-13T12:20:41.733Z,99216.36
2023-04-13T12:25:17.586Z,99219.31
2023-04-13T12:27:25.337Z,99225.86
2023-04-13T12:29:30.481Z,99225.16
2023-04-13T12:31:35.682Z,99225.63
2023-04-13T12:33:40.777Z,99227.05
2023-04-13T12:35:45.870Z,99224.66
2023-04-13T12:37:50.997Z,99227.79
2023-04-13T12:39:56.077Z,99226.08
2023-04-13T12:42:01.222Z,99220.09
2023-04-13T12:44:06.290Z,99222.77
2023-04-13T12:46:11.417Z,99234.13
2023-04-13T12:48:16.587Z,99230.98
2023-04-13T12:50:21.632Z,99226.33
2023-04-13T12:52:26.670Z,99228.8
2023-04-13T12:54:31.689Z,99232.38
2023-04-13T12:56:36.786Z,99231.73
2023-04-13T12:58:41.856Z,99235.45
2023-04-13T13:00:46.944Z,99234.36
2023-04-13T13:03:13.311Z,99238.36
2023-04-13T13:05:19.909Z,99239.84
2023-04-13T13:07:24.965Z,99235.88
2023-04-13T13:09:29.940Z,99240.82
2023-04-13T13:11:34.916Z,99245.39
2023-04-13T13:13:39.939Z,99243.08
2023-04-13T13:15:44.934Z,99244.64
2023-04-13T13:17:50.059Z,99245.61
2023-04-13T13:19:55.240Z,99247.38
2023-04-13T13:22:00.239Z,99244.25
2023-04-13T13:24:05.290Z,99234.63
2023-04-13T13:28:24.441Z,99229.25
2023-04-13T13:30:29.493Z,99234.03
2023-04-13T13:32:35.105Z,99234.84
2023-04-13T13:34:40.400Z,99238.22
2023-04-13T13:36:45.482Z,99239.64
2023-04-13T13:38:50.826Z,99239.84
2023-04-13T13:40:55.898Z,99239.72
2023-04-13T13:43:00.909Z,99239.48
2023-04-13T13:45:06.199Z,99238.1
2023-04-13T13:47:11.251Z,99241.73
2023-04-13T13:49:16.211Z,99243.13
2023-04-13T13:51:21.226Z,99244.86
2023-04-13T13:53:26.235Z,99243.5
2023-04-13T13:55:31.382Z,99242.3
2023-04-13T13:57:36.443Z,99239.7
2023-04-13T13:59:41.647Z,99247.25
2023-04-13T14:01:46.747Z,99246.77
2023-04-13T14:03:52.249Z,99239.67
2023-04-13T14:05:57.386Z,99240.13
2023-04-13T14:08:02.436Z,99239.55
2023-04-13T14:10:07.470Z,99246.06
2023-04-13T14:12:12.592Z,99243.55
2023-04-13T14:14:23.494Z,99248.38
2023-04-13T14:16:28.663Z,99250.73
2023-04-13T14:18:33.969Z,99251.59
2023-04-13T14:20:39.541Z,99258.42
2023-04-13T14:22:44.895Z,99260.45
2023-04-13T14:24:49.924Z,99255.8
2023-04-13T14:26:55.129Z,99254.2
2023-04-13T14:29:00.694Z,99254.42
2023-04-13T14:31:05.907Z,99252.5
2023-04-13T14:33:11.082Z,99248.77
2023-04-13T14:35:16.266Z,99251.63
2023-04-13T14:37:21.262Z,99250.55
2023-04-13T14:39:26.306Z,99250.39
2023-04-13T14:41:31.476Z,99251.31
2023-04-13T14:43:36.491Z,99255.16
2023-04-13T14:45:41.659Z,99257.5
2023-04-13T14:47:46.917Z,99256.14
2023-04-13T14:49:52.324Z,99255.89
2023-04-13T14:51:57.545Z,99256.98
2023-04-13T14:54:02.721Z,99257.84
2023-04-13T14:56:07.803Z,99262.08
2023-04-13T14:58:12.807Z,99264.31
2023-04-13T15:00:17.996Z,99264.14
2023-04-13T15:02:23.585Z,99264.42
2023-04-13T15:04:29.223Z,99264.69
2023-04-13T15:06:35.315Z,99269.02
2023-04-13T15:08:40.430Z,99264.36
2023-04-13T15:10:45.758Z,99266.52
2023-04-13T15:12:50.951Z,99266.55
2023-04-13T15:14:56.036Z,99269.53
2023-04-13T15:17:01.263Z,99263.73
2023-04-13T15:19:06.554Z,99263.5
2023-04-13T15:21:11.615Z,99265.84
2023-04-13T15:23:19.998Z,99266.98
2023-04-13T15:25:25.287Z,99270.89
2023-04-13T15:27:30.688Z,99267.77
2023-04-13T15:29:35.832Z,99272.97
2023-04-13T15:31:40.984Z,99269.49
2023-04-13T15:33:46.145Z,99267.68
2023-04-13T15:35:51.216Z,99264.3
2023-04-13T15:37:56.332Z,99269.7
2023-04-13T15:40:01.445Z,99273.63
2023-04-13T15:42:06.762Z,99272.17
2023-04-13T15:44:11.757Z,99266.14
2023-04-13T15:46:17.012Z,99268.57
2023-04-13T15:48:22.078Z,99266.67
2023-04-13T15:50:27.089Z,99268.11
2023-04-13T15:52:32.132Z,99274.56
2023-04-13T15:54:37.308Z,99275.2
2023-04-13T15:56:42.354Z,99278.31
2023-04-13T15:58:47.352Z,99280.02
2023-04-13T16:00:52.503Z,99280.33
2023-04-13T16:02:57.926Z,99280.78
2023-04-13T16:05:03.283Z,99277.96
2023-04-13T16:07:17.113Z,99281.84
2023-04-13T16:09:22.161Z,99281.49
2023-04-13T16:11:27.424Z,99282.4
2023-04-13T16:13:49.711Z,99283.7
2023-04-13T16:15:55.247Z,99289.02
2023-04-13T16:18:00.491Z,99286.83
2023-04-13T16:20:05.794Z,99285.92
2023-04-13T16:22:10.847Z,99290.63
2023-04-13T16:24:15.866Z,99291.45
2023-04-13T16:26:20.891Z,99299.34
2023-04-13T16:28:25.870Z,99292.05
2023-04-13T16:30:31.037Z,99289.02
2023-04-13T16:32:36.367Z,99296.47
2023-04-13T16:34:41.622Z,99293.1
2023-04-13T16:36:46.748Z,99294.62
2023-04-13T16:38:51.780Z,99301.5
2023-04-13T16:40:56.820Z,99296.02
2023-04-13T16:43:01.854Z,99297.77
2023-04-13T16:45:06.871Z,99297.61
2023-04-13T16:47:12.018Z,99301.42
2023-04-13T16:49:17.066Z,99303.34
2023-04-13T16:51:22.065Z,99306.09
2023-04-13T16:53:27.046Z,99309.08
2023-04-13T16:55:32.004Z,99308.46
2023-04-13T16:57:37.050Z,99306.52
2023-04-13T16:59:42.193Z,99312.08
2023-04-13T17:01:47.248Z,99307
2023-04-13T17:03:52.483Z,99309.2
2023-04-13T17:05:57.825Z,99308.76
2023-04-13T17:08:03.049Z,99311.84
2023-04-13T17:10:08.069Z,99314.34
2023-04-13T17:12:13.082Z,99315.84
2023-04-13T17:14:18.109Z,99317.73
2023-04-13T17:16:23.174Z,99318.09
2023-04-13T17:18:28.334Z,99323.43
2023-04-13T17:20:33.399Z,99330.23
2023-04-13T17:22:38.377Z,99331.97
2023-04-13T17:24:43.366Z,99335.45
2023-04-13T17:26:48.343Z,99337
2023-04-13T17:28:53.343Z,99344.56
2023-04-13T17:30:58.309Z,99352.91
2023-04-13T17:33:03.310Z,99354.94
2023-04-13T17:35:08.558Z,99358.41
2023-04-13T17:37:13.504Z,99366.25
2023-04-13T17:39:18.511Z,99365.83
2023-04-13T17:41:23.547Z,99367.47
2023-04-13T17:43:28.560Z,99367.36
2023-04-13T17:45:33.620Z,99367.86
2023-04-13T17:47:38.744Z,99374.35
2023-04-13T17:49:43.864Z,99374.41
2023-04-13T17:51:48.982Z,99376
2023-04-13T17:53:54.029Z,99379.45
2023-04-13T17:55:59.113Z,99381.63
2023-04-13T17:58:04.108Z,99382.5
2023-04-13T18:00:09.196Z,99386.53
2023-04-13T18:02:14.409Z,99393.22
2023-04-13T18:04:20.005Z,99391.22
2023-04-13T18:06:25.336Z,99387.23
2023-04-13T18:08:30.314Z,99393.54
2023-04-13T18:10:35.358Z,99398.29
2023-04-13T18:12:40.498Z,99396.59
2023-04-13T18:14:45.663Z,99405.5
2023-04-13T18:16:50.664Z,99406.26
2023-04-13T18:18:55.676Z,99410.83
2023-04-13T18:21:00.679Z,99412.2
2023-04-13T18:23:05.780Z,99412.98
2023-04-13T18:25:11.011Z,99408.88
2023-04-13T18:27:16.066Z,99413.34
2023-04-13T18:29:21.136Z,99414.97
2023-04-13T18:31:26.246Z,99418.53
2023-04-13T18:33:31.402Z,99423.35
2023-04-13T18:35:36.471Z,99427.34
2023-04-13T18:37:41.510Z,99429.94
2023-04-13T18:39:46.536Z,99431.75
2023-04-13T18:41:51.632Z,99435.08
2023-04-13T18:43:56.720Z,99429.87
2023-04-13T18:46:02.215Z,99430.83
2023-04-13T18:48:07.422Z,99427.25
2023-04-13T18:50:12.515Z,99433.19
2023-04-13T18:52:17.541Z,99434.72
2023-04-13T18:54:22.521Z,99430.5
2023-04-13T18:56:27.570Z,99435.98
2023-04-13T18:58:32.580Z,99436.72
2023-04-13T19:00:37.589Z,99435.91
2023-04-13T19:02:43.073Z,99438.81
2023-04-13T19:04:48.804Z,99439.53
2023-04-13T19:06:53.953Z,99439.14
2023-04-13T19:08:59.095Z,99443.47
2023-04-13T19:11:04.157Z,99442.84
2023-04-13T19:13:09.156Z,99443.73
2023-04-13T19:15:14.329Z,99442.18
2023-04-13T19:17:19.359Z,99440.83
2023-04-13T19:19:24.401Z,99442.31
2023-04-13T19:21:29.467Z,99439.49
2023-04-13T19:23:34.489Z,99439.34
2023-04-13T19:25:42.774Z,99442.82
2023-04-13T19:27:47.785Z,99447.56
2023-04-13T19:29:52.816Z,99447.13
2023-04-13T19:31:57.931Z,99449.98
2023-04-13T19:34:03.611Z,99450.72
2023-04-13T19:36:08.636Z,99448.16
2023-04-13T19:38:13.627Z,99456.02
2023-04-13T19:40:18.720Z,99454.13
2023-04-13T19:42:23.722Z,99451.52
2023-04-13T19:44:28.721Z,99453.64
2023-04-13T19:46:33.903Z,99455.86
2023-04-13T19:48:38.990Z,99460.92
2023-04-13T19:50:43.986Z,99463.33
2023-04-13T19:52:48.960Z,99464.72
2023-04-13T19:54:54.092Z,99462.2
2023-04-13T19:56:59.146Z,99464.95
2023-04-13T19:59:04.222Z,99464.06
2023-04-13T20:01:09.423Z,99463.8
2023-04-13T20:03:14.753Z,99463.42
2023-04-13T20:05:20.002Z,99462.87
2023-04-13T20:07:25.071Z,99461.24
2023-04-13T20:09:30.504Z,99460.63
2023-04-13T20:11:35.533Z,99459.78
2023-04-13T20:13:40.570Z,99462.34
2023-04-13T20:15:45.776Z,99457.7
2023-04-13T20:17:51.002Z,99460.19
2023-04-13T20:19:56.052Z,99457
2023-04-13T20:22:01.033Z,99454.59
2023-04-13T20:24:06.135Z,99456.31
2023-04-13T20:26:11.178Z,99456.36
2023-04-13T20:28:16.235Z,99458.64
2023-04-13T20:30:21.219Z,99455.88
2023-04-13T20:32:26.431Z,99455.4
2023-04-13T20:34:31.479Z,99452.51
2023-04-13T20:36:36.482Z,99451.68
2023-04-13T20:38:41.545Z,99453.77
2023-04-13T20:40:46.676Z,99449.63
2023-04-13T20:42:51.686Z,99449.13
2023-04-13T20:44:56.713Z,99445.7
2023-04-13T20:47:02.049Z,99447.38
2023-04-13T20:49:07.358Z,99444.69
2023-04-13T20:51:12.334Z,99448.14
2023-04-13T20:53:17.401Z,99446.09
2023-04-13T20:55:22.512Z,99453.22
2023-04-13T20:57:27.501Z,99448.11
2023-04-13T20:59:32.571Z,99447.17
2023-04-13T21:01:37.735Z,99443.5
2023-04-13T21:03:43.254Z,99444.99
2023-04-13T21:05:48.687Z,99440.53
2023-04-13T21:07:55.291Z,99438.59
2023-04-13T21:10:01.558Z,99433.89
2023-04-13T21:12:06.560Z,99425.19
2023-04-13T21:14:11.566Z,99417.91
2023-04-13T21:16:16.670Z,99415.45
2023-04-13T21:18:21.907Z,99408.23
2023-04-13T21:20:26.941Z,99411.89
2023-04-13T21:22:31.988Z,99409.86
2023-04-13T21:24:37.118Z,99403.2
2023-04-13T21:26:42.121Z,99403.17
2023-04-13T21:28:47.112Z,99398.45
2023-04-13T21:30:52.204Z,99394.63
2023-04-13T21:32:57.335Z,99393.91
2023-04-13T21:35:02.684Z,99391.16
2023-04-13T21:37:07.725Z,99387.34
2023-04-13T21:39:12.748Z,99386.39
2023-04-13T21:41:17.786Z,99384.86
2023-04-13T21:43:22.876Z,99378.77
2023-04-13T21:45:27.945Z,99371.02
2023-04-13T21:47:33.052Z,99371.38
2023-04-13T21:49:38.121Z,99367.69
2023-04-13T21:51:43.131Z,99367.41
2023-04-13T21:53:48.140Z,99365.37
2023-04-13T21:55:53.134Z,99364.52
2023-04-13T21:57:58.218Z,99366.86
2023-04-13T22:00:06.594Z,99363.25
2023-04-13T22:02:11.910Z,99363.38
2023-04-13T22:04:17.327Z,99363.09
2023-04-13T22:06:22.567Z,99365.01
2023-04-13T22:08:27.618Z,99366.08
2023-04-13T22:10:32.718Z,99365.08
2023-04-13T22:12:37.743Z,99366.89
2023-04-13T22:14:42.836Z,99366.67
2023-04-13T22:16:49.893Z,99362.28
2023-04-13T22:18:54.922Z,99362.5
2023-04-13T22:20:59.887Z,99362.53
2023-04-13T22:23:04.976Z,99363.5
2023-04-13T22:25:10.028Z,99364.33
2023-04-13T22:27:15.160Z,99368.59
2023-04-13T22:29:20.122Z,99370.63
2023-04-13T22:31:25.280Z,99367.84
2023-04-13T22:33:30.412Z,99366.09
2023-04-13T22:35:35.819Z,99363.58
2023-04-13T22:37:40.809Z,99361.45
2023-04-13T22:39:45.898Z,99364.17
2023-04-13T22:41:50.975Z,99362.23
2023-04-13T22:43:55.985Z,99359.09
2023-04-13T22:46:01.096Z,99359.3
2023-04-13T22:48:06.441Z,99359.8
2023-04-13T22:50:11.706Z,99359.38
2023-04-13T22:52:16.787Z,99354.41
2023-04-13T22:54:21.765Z,99358.73
2023-04-13T22:56:26.731Z,99362.16
2023-04-13T22:58:31.723Z,99360.44
2023-04-13T23:00:36.696Z,99354.06
2023-04-13T23:02:42.387Z,99353.95
2023-04-13T23:04:48.018Z,99351.84
2023-04-13T23:06:53.280Z,99354.13
2023-04-13T23:08:58.761Z,99350.64
2023-04-13T23:11:04.268Z,99352.52
2023-04-13T23:13:09.256Z,99351.38
2023-04-13T23:15:14.250Z,99350.47
2023-04-13T23:17:19.282Z,99347.77
2023-04-13T23:19:24.434Z,99346.34
2023-04-13T23:21:29.414Z,99348.61
2023-04-13T23:23:34.524Z,99343.01
2023-04-13T23:25:39.521Z,99343.56
2023-04-13T23:27:44.510Z,99339.92
2023-04-13T23:29:49.504Z,99338.55
2023-04-13T23:31:54.745Z,99339
2023-04-13T23:33:59.923Z,99339.83
2023-04-13T23:36:05.019Z,99339.1
2023-04-13T23:38:09.975Z,99335.23
2023-04-13T23:40:15.058Z,99333.25
2023-04-13T23:42:20.262Z,99327.8
2023-04-13T23:44:25.534Z,99326.14
2023-04-13T23:46:30.504Z,99328.73
2023-04-13T23:48:35.501Z,99327.08
2023-04-13T23:50:40.517Z,99325.97
2023-04-13T23:52:45.487Z,99327.83
2023-04-13T23:54:50.501Z,99329.05
2023-04-13T23:56:55.505Z,99327.86
2023-04-13T23:59:00.965Z,99334.41
